sensor_id;sensor_type;location;lat;lon;timestamp;P1;durP1;ratioP1;P2;durP2;ratioP2
13943;SDS011;7044;53.286;8.534;2024-02-16T00:01:20;5.95;;;2.55;;
13943;SDS011;7044;53.286;8.534;2024-02-16T00:03:46;6.72;;;3.03;;
13943;SDS011;7044;53.286;8.534;2024-02-16T00:06:13;3.05;;;2.45;;
13943;SDS011;7044;53.286;8.534;2024-02-16T00:08:42;7.20;;;2.38;;
13943;SDS011;7044;53.286;8.534;2024-02-16T00:11:08;6.13;;;2.72;;
13943;SDS011;7044;53.286;8.534;2024-02-16T00:13:35;6.78;;;2.80;;
13943;SDS011;7044;53.286;8.534;2024-02-16T00:16:03;4.72;;;2.72;;
13943;SDS011;7044;53.286;8.534;2024-02-16T00:18:30;3.65;;;2.45;;
13943;SDS011;7044;53.286;8.534;2024-02-16T00:20:57;3.60;;;2.50;;
13943;SDS011;7044;53.286;8.534;2024-02-16T00:23:24;4.63;;;2.35;;
13943;SDS011;7044;53.286;8.534;2024-02-16T00:25:52;2.88;;;2.20;;
13943;SDS011;7044;53.286;8.534;2024-02-16T00:28:19;4.15;;;2.03;;
13943;SDS011;7044;53.286;8.534;2024-02-16T00:30:46;4.70;;;2.50;;
13943;SDS011;7044;53.286;8.534;2024-02-16T00:33:14;4.63;;;2.42;;
13943;SDS011;7044;53.286;8.534;2024-02-16T00:35:42;3.50;;;2.38;;
13943;SDS011;7044;53.286;8.534;2024-02-16T00:38:09;5.78;;;2.10;;
13943;SDS011;7044;53.286;8.534;2024-02-16T00:40:36;5.50;;;2.45;;
13943;SDS011;7044;53.286;8.534;2024-02-16T00:43:09;3.83;;;2.25;;
13943;SDS011;7044;53.286;8.534;2024-02-16T00:45:36;4.68;;;2.25;;
13943;SDS011;7044;53.286;8.534;2024-02-16T00:48:04;4.72;;;2.42;;
13943;SDS011;7044;53.286;8.534;2024-02-16T00:50:31;2.63;;;2.10;;
13943;SDS011;7044;53.286;8.534;2024-02-16T00:52:58;3.70;;;2.40;;
13943;SDS011;7044;53.286;8.534;2024-02-16T00:55:25;2.83;;;2.17;;
13943;SDS011;7044;53.286;8.534;2024-02-16T00:57:52;5.53;;;2.55;;
13943;SDS011;7044;53.286;8.534;2024-02-16T01:00:20;3.47;;;2.30;;
13943;SDS011;7044;53.286;8.534;2024-02-16T01:02:46;5.13;;;2.25;;
13943;SDS011;7044;53.286;8.534;2024-02-16T01:05:13;5.05;;;2.13;;
13943;SDS011;7044;53.286;8.534;2024-02-16T01:07:42;5.68;;;2.30;;
13943;SDS011;7044;53.286;8.534;2024-02-16T01:10:09;2.92;;;1.80;;
13943;SDS011;7044;53.286;8.534;2024-02-16T01:12:37;3.17;;;2.30;;
13943;SDS011;7044;53.286;8.534;2024-02-16T01:15:04;5.95;;;2.53;;
13943;SDS011;7044;53.286;8.534;2024-02-16T01:17:33;4.32;;;2.30;;
13943;SDS011;7044;53.286;8.534;2024-02-16T01:20:00;4.10;;;2.08;;
13943;SDS011;7044;53.286;8.534;2024-02-16T01:22:29;4.10;;;2.30;;
13943;SDS011;7044;53.286;8.534;2024-02-16T01:24:56;3.35;;;1.98;;
13943;SDS011;7044;53.286;8.534;2024-02-16T01:27:23;4.68;;;2.10;;
13943;SDS011;7044;53.286;8.534;2024-02-16T01:29:49;5.07;;;2.20;;
13943;SDS011;7044;53.286;8.534;2024-02-16T01:32:16;2.15;;;1.80;;
13943;SDS011;7044;53.286;8.534;2024-02-16T01:34:45;6.78;;;2.15;;
13943;SDS011;7044;53.286;8.534;2024-02-16T01:37:14;3.63;;;2.15;;
13943;SDS011;7044;53.286;8.534;2024-02-16T01:39:41;3.33;;;2.17;;
13943;SDS011;7044;53.286;8.534;2024-02-16T01:42:08;4.10;;;2.10;;
13943;SDS011;7044;53.286;8.534;2024-02-16T01:44:35;3.17;;;2.03;;
13943;SDS011;7044;53.286;8.534;2024-02-16T01:47:02;7.40;;;2.40;;
13943;SDS011;7044;53.286;8.534;2024-02-16T01:49:30;4.00;;;2.13;;
13943;SDS011;7044;53.286;8.534;2024-02-16T01:51:58;6.38;;;1.92;;
13943;SDS011;7044;53.286;8.534;2024-02-16T01:54:25;4.43;;;2.33;;
13943;SDS011;7044;53.286;8.534;2024-02-16T01:56:52;5.82;;;2.00;;
13943;SDS011;7044;53.286;8.534;2024-02-16T01:59:20;6.82;;;2.08;;
13943;SDS011;7044;53.286;8.534;2024-02-16T02:01:48;6.55;;;2.17;;
13943;SDS011;7044;53.286;8.534;2024-02-16T02:04:14;4.50;;;1.98;;
13943;SDS011;7044;53.286;8.534;2024-02-16T02:06:41;2.92;;;1.85;;
13943;SDS011;7044;53.286;8.534;2024-02-16T02:09:10;3.47;;;1.90;;
13943;SDS011;7044;53.286;8.534;2024-02-16T02:11:36;2.63;;;1.85;;
13943;SDS011;7044;53.286;8.534;2024-02-16T02:14:03;4.70;;;2.08;;
13943;SDS011;7044;53.286;8.534;2024-02-16T02:16:30;4.80;;;2.22;;
13943;SDS011;7044;53.286;8.534;2024-02-16T02:18:58;4.60;;;1.80;;
13943;SDS011;7044;53.286;8.534;2024-02-16T02:21:24;4.22;;;1.67;;
13943;SDS011;7044;53.286;8.534;2024-02-16T02:23:53;4.63;;;1.90;;
13943;SDS011;7044;53.286;8.534;2024-02-16T02:26:20;4.35;;;2.05;;
13943;SDS011;7044;53.286;8.534;2024-02-16T02:28:47;1.92;;;1.60;;
13943;SDS011;7044;53.286;8.534;2024-02-16T02:31:15;4.30;;;1.73;;
13943;SDS011;7044;53.286;8.534;2024-02-16T02:33:42;3.30;;;1.65;;
13943;SDS011;7044;53.286;8.534;2024-02-16T02:36:09;4.45;;;1.90;;
13943;SDS011;7044;53.286;8.534;2024-02-16T02:38:36;2.85;;;1.90;;
13943;SDS011;7044;53.286;8.534;2024-02-16T02:41:04;2.10;;;1.85;;
13943;SDS011;7044;53.286;8.534;2024-02-16T02:43:31;5.97;;;1.83;;
13943;SDS011;7044;53.286;8.534;2024-02-16T02:45:58;3.78;;;2.10;;
13943;SDS011;7044;53.286;8.534;2024-02-16T02:48:25;4.32;;;1.70;;
13943;SDS011;7044;53.286;8.534;2024-02-16T02:50:52;2.80;;;1.58;;
13943;SDS011;7044;53.286;8.534;2024-02-16T02:53:18;3.85;;;1.85;;
13943;SDS011;7044;53.286;8.534;2024-02-16T02:55:47;6.72;;;1.98;;
13943;SDS011;7044;53.286;8.534;2024-02-16T02:58:15;5.20;;;1.52;;
13943;SDS011;7044;53.286;8.534;2024-02-16T03:00:43;3.42;;;2.00;;
13943;SDS011;7044;53.286;8.534;2024-02-16T03:03:10;4.55;;;1.60;;
13943;SDS011;7044;53.286;8.534;2024-02-16T03:05:40;2.58;;;1.65;;
13943;SDS011;7044;53.286;8.534;2024-02-16T03:08:07;2.55;;;1.52;;
13943;SDS011;7044;53.286;8.534;2024-02-16T03:10:36;1.63;;;1.50;;
13943;SDS011;7044;53.286;8.534;2024-02-16T03:13:03;6.32;;;1.83;;
13943;SDS011;7044;53.286;8.534;2024-02-16T03:15:33;2.65;;;1.60;;
13943;SDS011;7044;53.286;8.534;2024-02-16T03:18:00;3.47;;;1.73;;
13943;SDS011;7044;53.286;8.534;2024-02-16T03:20:27;4.90;;;2.20;;
13943;SDS011;7044;53.286;8.534;2024-02-16T03:22:55;3.45;;;2.00;;
13943;SDS011;7044;53.286;8.534;2024-02-16T03:25:22;8.25;;;2.03;;
13943;SDS011;7044;53.286;8.534;2024-02-16T03:27:49;3.40;;;1.55;;
13943;SDS011;7044;53.286;8.534;2024-02-16T03:30:18;3.05;;;1.45;;
13943;SDS011;7044;53.286;8.534;2024-02-16T03:32:48;3.83;;;1.75;;
13943;SDS011;7044;53.286;8.534;2024-02-16T03:35:15;3.90;;;1.58;;
13943;SDS011;7044;53.286;8.534;2024-02-16T03:37:42;3.40;;;1.40;;
13943;SDS011;7044;53.286;8.534;2024-02-16T03:40:10;3.65;;;1.90;;
13943;SDS011;7044;53.286;8.534;2024-02-16T03:42:37;3.22;;;1.67;;
13943;SDS011;7044;53.286;8.534;2024-02-16T03:45:06;1.60;;;1.42;;
13943;SDS011;7044;53.286;8.534;2024-02-16T03:47:33;2.15;;;1.55;;
13943;SDS011;7044;53.286;8.534;2024-02-16T03:50:01;2.35;;;1.35;;
13943;SDS011;7044;53.286;8.534;2024-02-16T03:52:28;4.32;;;1.73;;
13943;SDS011;7044;53.286;8.534;2024-02-16T03:54:56;3.92;;;1.60;;
13943;SDS011;7044;53.286;8.534;2024-02-16T03:57:23;2.50;;;1.90;;
13943;SDS011;7044;53.286;8.534;2024-02-16T03:59:50;3.00;;;1.60;;
13943;SDS011;7044;53.286;8.534;2024-02-16T04:02:16;2.78;;;1.35;;
13943;SDS011;7044;53.286;8.534;2024-02-16T04:04:43;2.88;;;1.60;;
13943;SDS011;7044;53.286;8.534;2024-02-16T04:07:12;2.05;;;1.40;;
13943;SDS011;7044;53.286;8.534;2024-02-16T04:09:39;3.65;;;1.77;;
13943;SDS011;7044;53.286;8.534;2024-02-16T04:12:06;4.15;;;1.60;;
13943;SDS011;7044;53.286;8.534;2024-02-16T04:14:34;3.92;;;1.65;;
13943;SDS011;7044;53.286;8.534;2024-02-16T04:17:01;4.07;;;1.63;;
13943;SDS011;7044;53.286;8.534;2024-02-16T04:19:29;3.42;;;1.83;;
13943;SDS011;7044;53.286;8.534;2024-02-16T04:21:55;7.25;;;1.70;;
13943;SDS011;7044;53.286;8.534;2024-02-16T04:24:24;2.08;;;1.52;;
13943;SDS011;7044;53.286;8.534;2024-02-16T04:26:51;4.65;;;1.60;;
13943;SDS011;7044;53.286;8.534;2024-02-16T04:29:18;2.63;;;1.73;;
13943;SDS011;7044;53.286;8.534;2024-02-16T04:31:45;3.25;;;1.80;;
13943;SDS011;7044;53.286;8.534;2024-02-16T04:34:13;3.95;;;1.60;;
13943;SDS011;7044;53.286;8.534;2024-02-16T04:36:40;2.33;;;1.50;;
13943;SDS011;7044;53.286;8.534;2024-02-16T04:39:07;1.77;;;1.55;;
13943;SDS011;7044;53.286;8.534;2024-02-16T04:41:36;3.50;;;1.50;;
13943;SDS011;7044;53.286;8.534;2024-02-16T04:44:03;1.50;;;1.40;;
13943;SDS011;7044;53.286;8.534;2024-02-16T04:46:30;1.98;;;1.30;;
13943;SDS011;7044;53.286;8.534;2024-02-16T04:48:57;2.40;;;1.40;;
13943;SDS011;7044;53.286;8.534;2024-02-16T04:51:24;2.15;;;1.90;;
13943;SDS011;7044;53.286;8.534;2024-02-16T04:53:51;1.50;;;1.40;;
13943;SDS011;7044;53.286;8.534;2024-02-16T04:56:17;2.35;;;1.80;;
13943;SDS011;7044;53.286;8.534;2024-02-16T04:58:47;3.83;;;1.48;;
13943;SDS011;7044;53.286;8.534;2024-02-16T05:01:13;2.92;;;1.83;;
13943;SDS011;7044;53.286;8.534;2024-02-16T05:03:40;4.68;;;1.85;;
13943;SDS011;7044;53.286;8.534;2024-02-16T05:06:07;4.70;;;1.73;;
13943;SDS011;7044;53.286;8.534;2024-02-16T05:08:34;1.50;;;1.40;;
13943;SDS011;7044;53.286;8.534;2024-02-16T05:11:01;1.58;;;1.35;;
13943;SDS011;7044;53.286;8.534;2024-02-16T05:13:28;2.67;;;1.65;;
13943;SDS011;7044;53.286;8.534;2024-02-16T05:15:56;3.28;;;1.52;;
13943;SDS011;7044;53.286;8.534;2024-02-16T05:18:23;3.45;;;1.30;;
13943;SDS011;7044;53.286;8.534;2024-02-16T05:20:50;4.70;;;1.40;;
13943;SDS011;7044;53.286;8.534;2024-02-16T05:23:17;3.92;;;1.45;;
13943;SDS011;7044;53.286;8.534;2024-02-16T05:25:44;5.20;;;1.45;;
13943;SDS011;7044;53.286;8.534;2024-02-16T05:28:11;1.48;;;1.33;;
13943;SDS011;7044;53.286;8.534;2024-02-16T05:30:39;3.95;;;1.50;;
13943;SDS011;7044;53.286;8.534;2024-02-16T05:33:07;4.57;;;1.90;;
13943;SDS011;7044;53.286;8.534;2024-02-16T05:35:34;4.65;;;1.67;;
13943;SDS011;7044;53.286;8.534;2024-02-16T05:38:05;2.35;;;1.42;;
13943;SDS011;7044;53.286;8.534;2024-02-16T05:40:45;7.25;;;1.70;;
13943;SDS011;7044;53.286;8.534;2024-02-16T05:43:18;3.00;;;1.50;;
13943;SDS011;7044;53.286;8.534;2024-02-16T05:45:45;2.60;;;1.48;;
13943;SDS011;7044;53.286;8.534;2024-02-16T05:48:13;5.20;;;1.60;;
13943;SDS011;7044;53.286;8.534;2024-02-16T05:50:40;3.28;;;1.50;;
13943;SDS011;7044;53.286;8.534;2024-02-16T05:53:08;2.30;;;1.50;;
13943;SDS011;7044;53.286;8.534;2024-02-16T05:55:36;1.95;;;1.45;;
13943;SDS011;7044;53.286;8.534;2024-02-16T05:58:03;2.13;;;1.50;;
13943;SDS011;7044;53.286;8.534;2024-02-16T06:00:31;1.85;;;1.40;;
13943;SDS011;7044;53.286;8.534;2024-02-16T06:02:59;1.60;;;1.33;;
13943;SDS011;7044;53.286;8.534;2024-02-16T06:05:29;2.78;;;1.45;;
13943;SDS011;7044;53.286;8.534;2024-02-16T06:07:55;1.95;;;1.30;;
13943;SDS011;7044;53.286;8.534;2024-02-16T06:10:24;3.58;;;1.60;;
13943;SDS011;7044;53.286;8.534;2024-02-16T06:12:51;2.10;;;1.58;;
13943;SDS011;7044;53.286;8.534;2024-02-16T06:15:18;1.77;;;1.60;;
13943;SDS011;7044;53.286;8.534;2024-02-16T06:17:45;3.45;;;1.40;;
13943;SDS011;7044;53.286;8.534;2024-02-16T06:20:12;2.90;;;1.60;;
13943;SDS011;7044;53.286;8.534;2024-02-16T06:22:40;3.90;;;1.63;;
13943;SDS011;7044;53.286;8.534;2024-02-16T06:25:07;2.20;;;1.50;;
13943;SDS011;7044;53.286;8.534;2024-02-16T06:27:34;1.88;;;1.40;;
13943;SDS011;7044;53.286;8.534;2024-02-16T06:30:02;2.17;;;1.73;;
13943;SDS011;7044;53.286;8.534;2024-02-16T06:32:30;4.70;;;1.67;;
13943;SDS011;7044;53.286;8.534;2024-02-16T06:34:57;1.85;;;1.42;;
13943;SDS011;7044;53.286;8.534;2024-02-16T06:37:24;2.47;;;1.60;;
13943;SDS011;7044;53.286;8.534;2024-02-16T06:39:52;4.30;;;1.70;;
13943;SDS011;7044;53.286;8.534;2024-02-16T06:42:19;2.95;;;1.85;;
13943;SDS011;7044;53.286;8.534;2024-02-16T06:44:46;3.25;;;2.30;;
13943;SDS011;7044;53.286;8.534;2024-02-16T06:47:13;1.42;;;1.33;;
13943;SDS011;7044;53.286;8.534;2024-02-16T06:49:39;1.42;;;1.33;;
13943;SDS011;7044;53.286;8.534;2024-02-16T06:52:06;2.22;;;1.63;;
13943;SDS011;7044;53.286;8.534;2024-02-16T06:54:35;2.17;;;1.63;;
13943;SDS011;7044;53.286;8.534;2024-02-16T06:57:03;1.80;;;1.67;;
13943;SDS011;7044;53.286;8.534;2024-02-16T06:59:29;2.85;;;1.90;;
13943;SDS011;7044;53.286;8.534;2024-02-16T07:01:56;3.05;;;1.50;;
13943;SDS011;7044;53.286;8.534;2024-02-16T07:04:22;1.65;;;1.50;;
13943;SDS011;7044;53.286;8.534;2024-02-16T07:06:49;2.28;;;1.65;;
13943;SDS011;7044;53.286;8.534;2024-02-16T07:09:17;2.08;;;1.60;;
13943;SDS011;7044;53.286;8.534;2024-02-16T07:11:44;11.38;;;2.08;;
13943;SDS011;7044;53.286;8.534;2024-02-16T07:14:13;5.47;;;1.95;;
13943;SDS011;7044;53.286;8.534;2024-02-16T07:16:39;2.00;;;1.48;;
13943;SDS011;7044;53.286;8.534;2024-02-16T07:19:06;3.33;;;1.50;;
13943;SDS011;7044;53.286;8.534;2024-02-16T07:21:33;2.35;;;1.45;;
13943;SDS011;7044;53.286;8.534;2024-02-16T07:24:00;1.95;;;1.52;;
13943;SDS011;7044;53.286;8.534;2024-02-16T07:26:28;2.13;;;1.50;;
13943;SDS011;7044;53.286;8.534;2024-02-16T07:28:55;2.90;;;1.58;;
13943;SDS011;7044;53.286;8.534;2024-02-16T07:31:23;3.03;;;1.75;;
13943;SDS011;7044;53.286;8.534;2024-02-16T07:33:50;4.20;;;1.63;;
13943;SDS011;7044;53.286;8.534;2024-02-16T07:36:17;2.45;;;1.50;;
13943;SDS011;7044;53.286;8.534;2024-02-16T07:38:44;2.65;;;1.88;;
13943;SDS011;7044;53.286;8.534;2024-02-16T07:41:12;5.07;;;1.77;;
13943;SDS011;7044;53.286;8.534;2024-02-16T07:43:39;1.65;;;1.40;;
13943;SDS011;7044;53.286;8.534;2024-02-16T07:46:06;3.47;;;1.80;;
13943;SDS011;7044;53.286;8.534;2024-02-16T07:48:34;2.78;;;1.63;;
13943;SDS011;7044;53.286;8.534;2024-02-16T07:51:01;4.40;;;1.70;;
13943;SDS011;7044;53.286;8.534;2024-02-16T07:53:29;2.83;;;1.70;;
13943;SDS011;7044;53.286;8.534;2024-02-16T07:55:56;3.13;;;1.85;;
13943;SDS011;7044;53.286;8.534;2024-02-16T07:58:23;5.45;;;2.00;;
13943;SDS011;7044;53.286;8.534;2024-02-16T08:00:50;2.80;;;1.45;;
13943;SDS011;7044;53.286;8.534;2024-02-16T08:03:19;3.08;;;1.80;;
13943;SDS011;7044;53.286;8.534;2024-02-16T08:05:47;2.13;;;1.50;;
13943;SDS011;7044;53.286;8.534;2024-02-16T08:08:14;2.70;;;1.75;;
13943;SDS011;7044;53.286;8.534;2024-02-16T08:10:41;2.30;;;1.33;;
13943;SDS011;7044;53.286;8.534;2024-02-16T08:13:08;2.80;;;1.20;;
13943;SDS011;7044;53.286;8.534;2024-02-16T08:15:35;4.80;;;1.77;;
13943;SDS011;7044;53.286;8.534;2024-02-16T08:18:02;2.50;;;1.60;;
13943;SDS011;7044;53.286;8.534;2024-02-16T08:20:30;2.88;;;1.52;;
13943;SDS011;7044;53.286;8.534;2024-02-16T08:22:58;3.00;;;1.52;;
13943;SDS011;7044;53.286;8.534;2024-02-16T08:25:25;2.72;;;1.67;;
13943;SDS011;7044;53.286;8.534;2024-02-16T08:27:53;2.40;;;1.63;;
13943;SDS011;7044;53.286;8.534;2024-02-16T08:30:20;2.25;;;1.63;;
13943;SDS011;7044;53.286;8.534;2024-02-16T08:32:47;3.33;;;1.60;;
13943;SDS011;7044;53.286;8.534;2024-02-16T08:35:14;2.47;;;1.80;;
13943;SDS011;7044;53.286;8.534;2024-02-16T08:37:42;3.55;;;1.55;;
13943;SDS011;7044;53.286;8.534;2024-02-16T08:40:12;2.13;;;1.80;;
13943;SDS011;7044;53.286;8.534;2024-02-16T08:42:40;3.08;;;1.50;;
13943;SDS011;7044;53.286;8.534;2024-02-16T08:45:07;1.98;;;1.80;;
13943;SDS011;7044;53.286;8.534;2024-02-16T08:47:35;2.17;;;1.70;;
13943;SDS011;7044;53.286;8.534;2024-02-16T08:50:02;3.42;;;1.80;;
13943;SDS011;7044;53.286;8.534;2024-02-16T08:52:30;2.80;;;1.90;;
13943;SDS011;7044;53.286;8.534;2024-02-16T08:54:57;2.92;;;1.73;;
13943;SDS011;7044;53.286;8.534;2024-02-16T08:57:26;3.03;;;1.95;;
13943;SDS011;7044;53.286;8.534;2024-02-16T08:59:53;4.38;;;1.85;;
13943;SDS011;7044;53.286;8.534;2024-02-16T09:02:21;4.28;;;1.85;;
13943;SDS011;7044;53.286;8.534;2024-02-16T09:04:48;1.60;;;1.50;;
13943;SDS011;7044;53.286;8.534;2024-02-16T09:07:15;3.85;;;1.77;;
13943;SDS011;7044;53.286;8.534;2024-02-16T09:09:42;1.85;;;1.65;;
13943;SDS011;7044;53.286;8.534;2024-02-16T09:12:09;6.13;;;2.17;;
13943;SDS011;7044;53.286;8.534;2024-02-16T09:14:37;3.47;;;1.73;;
13943;SDS011;7044;53.286;8.534;2024-02-16T09:17:04;2.25;;;1.50;;
13943;SDS011;7044;53.286;8.534;2024-02-16T09:19:31;3.63;;;2.00;;
13943;SDS011;7044;53.286;8.534;2024-02-16T09:21:59;3.75;;;1.55;;
13943;SDS011;7044;53.286;8.534;2024-02-16T09:24:28;3.85;;;1.88;;
13943;SDS011;7044;53.286;8.534;2024-02-16T09:26:55;2.28;;;1.70;;
13943;SDS011;7044;53.286;8.534;2024-02-16T09:29:22;6.93;;;1.52;;
13943;SDS011;7044;53.286;8.534;2024-02-16T09:31:50;2.08;;;1.73;;
13943;SDS011;7044;53.286;8.534;2024-02-16T09:34:17;3.30;;;1.98;;
13943;SDS011;7044;53.286;8.534;2024-02-16T09:36:44;4.97;;;1.92;;
13943;SDS011;7044;53.286;8.534;2024-02-16T09:39:11;3.40;;;1.85;;
13943;SDS011;7044;53.286;8.534;2024-02-16T09:41:40;2.10;;;1.77;;
13943;SDS011;7044;53.286;8.534;2024-02-16T09:44:08;2.40;;;1.90;;
13943;SDS011;7044;53.286;8.534;2024-02-16T09:46:36;2.42;;;1.88;;
13943;SDS011;7044;53.286;8.534;2024-02-16T09:49:04;2.58;;;1.70;;
13943;SDS011;7044;53.286;8.534;2024-02-16T09:51:31;2.83;;;1.80;;
13943;SDS011;7044;53.286;8.534;2024-02-16T09:54:03;3.53;;;1.90;;
13943;SDS011;7044;53.286;8.534;2024-02-16T09:56:32;4.32;;;2.08;;
13943;SDS011;7044;53.286;8.534;2024-02-16T09:58:59;3.60;;;1.98;;
13943;SDS011;7044;53.286;8.534;2024-02-16T10:01:26;2.95;;;2.17;;
13943;SDS011;7044;53.286;8.534;2024-02-16T10:03:53;3.00;;;2.13;;
13943;SDS011;7044;53.286;8.534;2024-02-16T10:06:21;4.88;;;2.03;;
13943;SDS011;7044;53.286;8.534;2024-02-16T10:08:49;6.25;;;1.83;;
13943;SDS011;7044;53.286;8.534;2024-02-16T10:11:17;2.53;;;1.88;;
13943;SDS011;7044;53.286;8.534;2024-02-16T10:13:55;7.07;;;2.60;;
13943;SDS011;7044;53.286;8.534;2024-02-16T10:16:22;3.17;;;2.33;;
13943;SDS011;7044;53.286;8.534;2024-02-16T10:18:50;2.50;;;2.20;;
13943;SDS011;7044;53.286;8.534;2024-02-16T10:21:28;4.95;;;2.20;;
13943;SDS011;7044;53.286;8.534;2024-02-16T10:23:59;3.58;;;2.25;;
13943;SDS011;7044;53.286;8.534;2024-02-16T10:26:28;4.30;;;2.38;;
13943;SDS011;7044;53.286;8.534;2024-02-16T10:28:55;2.47;;;1.90;;
13943;SDS011;7044;53.286;8.534;2024-02-16T10:31:23;2.22;;;2.03;;
13943;SDS011;7044;53.286;8.534;2024-02-16T10:33:56;5.10;;;2.30;;
13943;SDS011;7044;53.286;8.534;2024-02-16T10:36:24;3.00;;;2.10;;
13943;SDS011;7044;53.286;8.534;2024-02-16T10:38:54;2.42;;;1.73;;
13943;SDS011;7044;53.286;8.534;2024-02-16T10:41:23;2.92;;;2.13;;
13943;SDS011;7044;53.286;8.534;2024-02-16T10:43:54;2.67;;;1.85;;
13943;SDS011;7044;53.286;8.534;2024-02-16T10:46:21;4.57;;;2.33;;
13943;SDS011;7044;53.286;8.534;2024-02-16T10:48:49;3.15;;;2.42;;
13943;SDS011;7044;53.286;8.534;2024-02-16T10:51:17;11.48;;;2.60;;
13943;SDS011;7044;53.286;8.534;2024-02-16T10:53:51;5.07;;;2.83;;
13943;SDS011;7044;53.286;8.534;2024-02-16T10:56:26;4.30;;;2.65;;
13943;SDS011;7044;53.286;8.534;2024-02-16T10:58:54;3.83;;;2.35;;
13943;SDS011;7044;53.286;8.534;2024-02-16T11:01:21;3.92;;;2.28;;
13943;SDS011;7044;53.286;8.534;2024-02-16T11:03:49;2.70;;;2.20;;
13943;SDS011;7044;53.286;8.534;2024-02-16T11:06:26;3.28;;;2.10;;
13943;SDS011;7044;53.286;8.534;2024-02-16T11:08:54;2.75;;;2.25;;
13943;SDS011;7044;53.286;8.534;2024-02-16T11:11:32;3.38;;;2.42;;
13943;SDS011;7044;53.286;8.534;2024-02-16T11:14:01;4.85;;;2.45;;
13943;SDS011;7044;53.286;8.534;2024-02-16T11:16:28;3.28;;;2.47;;
13943;SDS011;7044;53.286;8.534;2024-02-16T11:18:56;3.83;;;2.25;;
13943;SDS011;7044;53.286;8.534;2024-02-16T11:21:23;4.10;;;2.40;;
13943;SDS011;7044;53.286;8.534;2024-02-16T11:23:50;4.03;;;2.83;;
13943;SDS011;7044;53.286;8.534;2024-02-16T11:26:18;3.30;;;2.75;;
13943;SDS011;7044;53.286;8.534;2024-02-16T11:28:45;4.45;;;3.05;;
13943;SDS011;7044;53.286;8.534;2024-02-16T11:31:12;3.45;;;2.75;;
13943;SDS011;7044;53.286;8.534;2024-02-16T11:33:43;4.68;;;2.90;;
13943;SDS011;7044;53.286;8.534;2024-02-16T11:36:10;4.55;;;3.00;;
13943;SDS011;7044;53.286;8.534;2024-02-16T11:38:37;6.13;;;2.90;;
13943;SDS011;7044;53.286;8.534;2024-02-16T11:41:05;5.45;;;2.75;;
13943;SDS011;7044;53.286;8.534;2024-02-16T11:43:35;4.55;;;3.17;;
13943;SDS011;7044;53.286;8.534;2024-02-16T11:46:10;4.82;;;2.75;;
13943;SDS011;7044;53.286;8.534;2024-02-16T11:48:38;4.45;;;2.60;;
13943;SDS011;7044;53.286;8.534;2024-02-16T11:51:06;7.72;;;3.25;;
13943;SDS011;7044;53.286;8.534;2024-02-16T11:53:33;5.75;;;3.03;;
13943;SDS011;7044;53.286;8.534;2024-02-16T11:56:00;7.93;;;2.70;;
13943;SDS011;7044;53.286;8.534;2024-02-16T11:58:27;7.47;;;3.28;;
13943;SDS011;7044;53.286;8.534;2024-02-16T12:00:57;4.95;;;2.92;;
13943;SDS011;7044;53.286;8.534;2024-02-16T12:03:25;10.38;;;2.78;;
13943;SDS011;7044;53.286;8.534;2024-02-16T12:05:53;2.88;;;2.60;;
13943;SDS011;7044;53.286;8.534;2024-02-16T12:08:21;3.83;;;3.17;;
13943;SDS011;7044;53.286;8.534;2024-02-16T12:10:49;4.53;;;3.03;;
13943;SDS011;7044;53.286;8.534;2024-02-16T12:13:17;6.50;;;2.78;;
13943;SDS011;7044;53.286;8.534;2024-02-16T12:15:45;4.22;;;2.90;;
13943;SDS011;7044;53.286;8.534;2024-02-16T12:18:23;6.80;;;2.95;;
13943;SDS011;7044;53.286;8.534;2024-02-16T12:20:57;3.60;;;2.78;;
13943;SDS011;7044;53.286;8.534;2024-02-16T12:23:24;5.00;;;3.05;;
13943;SDS011;7044;53.286;8.534;2024-02-16T12:25:51;4.78;;;3.00;;
13943;SDS011;7044;53.286;8.534;2024-02-16T12:28:19;4.75;;;2.95;;
13943;SDS011;7044;53.286;8.534;2024-02-16T12:30:46;5.35;;;3.08;;
13943;SDS011;7044;53.286;8.534;2024-02-16T12:33:14;4.90;;;3.25;;
13943;SDS011;7044;53.286;8.534;2024-02-16T12:35:42;4.57;;;2.70;;
13943;SDS011;7044;53.286;8.534;2024-02-16T12:38:10;8.50;;;3.05;;
13943;SDS011;7044;53.286;8.534;2024-02-16T12:40:37;4.90;;;2.70;;
13943;SDS011;7044;53.286;8.534;2024-02-16T12:43:04;9.32;;;3.28;;
13943;SDS011;7044;53.286;8.534;2024-02-16T12:45:34;3.97;;;2.95;;
13943;SDS011;7044;53.286;8.534;2024-02-16T12:48:01;4.35;;;3.28;;
13943;SDS011;7044;53.286;8.534;2024-02-16T12:50:28;6.05;;;3.45;;
13943;SDS011;7044;53.286;8.534;2024-02-16T12:52:57;5.75;;;3.35;;
13943;SDS011;7044;53.286;8.534;2024-02-16T12:55:24;9.30;;;3.42;;
13943;SDS011;7044;53.286;8.534;2024-02-16T12:57:51;4.45;;;3.42;;
13943;SDS011;7044;53.286;8.534;2024-02-16T13:00:18;7.38;;;3.08;;
13943;SDS011;7044;53.286;8.534;2024-02-16T13:02:45;7.00;;;3.47;;
13943;SDS011;7044;53.286;8.534;2024-02-16T13:05:12;4.35;;;3.28;;
13943;SDS011;7044;53.286;8.534;2024-02-16T13:07:39;6.10;;;3.45;;
13943;SDS011;7044;53.286;8.534;2024-02-16T13:10:08;5.15;;;3.58;;
13943;SDS011;7044;53.286;8.534;2024-02-16T13:12:36;6.38;;;3.50;;
13943;SDS011;7044;53.286;8.534;2024-02-16T13:15:04;8.35;;;4.10;;
13943;SDS011;7044;53.286;8.534;2024-02-16T13:17:31;3.88;;;3.38;;
13943;SDS011;7044;53.286;8.534;2024-02-16T13:19:59;12.00;;;4.15;;
13943;SDS011;7044;53.286;8.534;2024-02-16T13:22:31;4.15;;;3.53;;
13943;SDS011;7044;53.286;8.534;2024-02-16T13:24:59;6.00;;;4.40;;
13943;SDS011;7044;53.286;8.534;2024-02-16T13:27:27;7.28;;;3.95;;
13943;SDS011;7044;53.286;8.534;2024-02-16T13:29:54;4.82;;;4.07;;
13943;SDS011;7044;53.286;8.534;2024-02-16T13:32:21;5.78;;;4.55;;
13943;SDS011;7044;53.286;8.534;2024-02-16T13:34:48;5.18;;;3.88;;
13943;SDS011;7044;53.286;8.534;2024-02-16T13:37:15;4.95;;;4.30;;
13943;SDS011;7044;53.286;8.534;2024-02-16T13:39:42;9.48;;;5.10;;
13943;SDS011;7044;53.286;8.534;2024-02-16T13:42:09;6.55;;;4.75;;
13943;SDS011;7044;53.286;8.534;2024-02-16T13:44:38;6.30;;;5.10;;
13943;SDS011;7044;53.286;8.534;2024-02-16T13:47:05;9.20;;;5.32;;
13943;SDS011;7044;53.286;8.534;2024-02-16T13:49:32;6.72;;;5.15;;
13943;SDS011;7044;53.286;8.534;2024-02-16T13:51:59;6.70;;;5.13;;
13943;SDS011;7044;53.286;8.534;2024-02-16T13:54:26;6.55;;;4.43;;
13943;SDS011;7044;53.286;8.534;2024-02-16T13:56:53;7.32;;;5.00;;
13943;SDS011;7044;53.286;8.534;2024-02-16T13:59:20;6.28;;;5.65;;
13943;SDS011;7044;53.286;8.534;2024-02-16T14:01:48;9.60;;;5.18;;
13943;SDS011;7044;53.286;8.534;2024-02-16T14:04:15;7.05;;;4.80;;
13943;SDS011;7044;53.286;8.534;2024-02-16T14:06:43;9.93;;;5.68;;
13943;SDS011;7044;53.286;8.534;2024-02-16T14:09:10;8.55;;;5.10;;
13943;SDS011;7044;53.286;8.534;2024-02-16T14:11:39;7.22;;;5.13;;
13943;SDS011;7044;53.286;8.534;2024-02-16T14:14:07;8.77;;;5.13;;
13943;SDS011;7044;53.286;8.534;2024-02-16T14:16:34;6.80;;;4.65;;
13943;SDS011;7044;53.286;8.534;2024-02-16T14:19:02;7.05;;;4.40;;
13943;SDS011;7044;53.286;8.534;2024-02-16T14:21:29;6.28;;;4.78;;
13943;SDS011;7044;53.286;8.534;2024-02-16T14:23:56;8.02;;;4.63;;
13943;SDS011;7044;53.286;8.534;2024-02-16T14:26:23;6.97;;;4.68;;
13943;SDS011;7044;53.286;8.534;2024-02-16T14:28:49;6.43;;;5.03;;
13943;SDS011;7044;53.286;8.534;2024-02-16T14:31:16;5.82;;;4.95;;
13943;SDS011;7044;53.286;8.534;2024-02-16T14:33:45;9.27;;;5.28;;
13943;SDS011;7044;53.286;8.534;2024-02-16T14:36:14;6.35;;;4.88;;
13943;SDS011;7044;53.286;8.534;2024-02-16T14:38:41;8.88;;;5.07;;
13943;SDS011;7044;53.286;8.534;2024-02-16T14:41:08;7.70;;;5.40;;
13943;SDS011;7044;53.286;8.534;2024-02-16T14:43:35;10.18;;;5.30;;
13943;SDS011;7044;53.286;8.534;2024-02-16T14:46:02;7.95;;;4.60;;
13943;SDS011;7044;53.286;8.534;2024-02-16T14:48:29;7.03;;;5.40;;
13943;SDS011;7044;53.286;8.534;2024-02-16T14:50:56;5.05;;;4.55;;
13943;SDS011;7044;53.286;8.534;2024-02-16T14:53:25;5.60;;;4.40;;
13943;SDS011;7044;53.286;8.534;2024-02-16T14:55:52;5.97;;;4.50;;
13943;SDS011;7044;53.286;8.534;2024-02-16T14:58:19;5.93;;;4.80;;
13943;SDS011;7044;53.286;8.534;2024-02-16T15:00:46;5.28;;;4.78;;
13943;SDS011;7044;53.286;8.534;2024-02-16T15:03:13;6.72;;;4.75;;